Time;durP1;ratioP1;P1;durP2;ratioP2;P2;SDS_P1;SDS_P2;PMS_P1;PMS_P2;Temp;Humidity;BMP_temperature;BMP_pressure;BME280_temperature;BME280_humidity;BME280_pressure;Samples;Min_cycle;Max_cycle;Signal;HPM_P1;HPM_P2
2021/05/31 00:01:10;;;;;;;9.17;3.10;;;;;;;8.12;88.17;96766.88;5050361;28;20205;-73
2021/05/31 00:03:36;;;;;;;4.50;2.73;;;;;;;8.21;87.51;96774.72;5050562;28;20312;-73
2021/05/31 00:06:04;;;;;;;5.23;3.20;;;;;;;8.09;88.08;96765.38;5050017;28;20695;-73
2021/05/31 00:08:30;;;;;;;6.53;2.70;;;;;;;8.15;87.89;96766.63;5050494;28;20211;-73
2021/05/31 00:10:56;;;;;;;8.73;3.13;;;;;;;8.06;89.21;96762.25;5050123;28;20216;-73
2021/05/31 00:13:22;;;;;;;4.60;2.73;;;;;;;8.06;88.60;96772.75;5050269;28;20225;-73
2021/05/31 00:15:48;;;;;;;7.00;3.20;;;;;;;8.08;88.46;96776.03;5049917;28;20213;-73
2021/05/31 00:18:15;;;;;;;11.20;2.87;;;;;;;7.93;89.52;96777.53;5050147;28;20224;-73
2021/05/31 00:20:41;;;;;;;6.30;3.10;;;;;;;7.93;89.32;96767.84;5050096;28;20212;-73
2021/05/31 00:23:08;;;;;;;4.70;2.90;;;;;;;7.98;89.36;96762.13;5050077;28;20631;-73
2021/05/31 00:25:34;;;;;;;7.20;3.20;;;;;;;7.96;89.47;96764.91;5049714;28;20212;-73
2021/05/31 00:28:00;;;;;;;7.93;3.53;;;;;;;7.98;89.38;96759.50;5050167;28;20307;-73
2021/05/31 00:30:26;;;;;;;6.73;3.40;;;;;;;7.83;91.19;96761.00;5050107;28;20354;-73
2021/05/31 00:32:53;;;;;;;6.10;3.57;;;;;;;7.91;89.33;96754.03;5049939;28;20279;-73
2021/05/31 00:35:19;;;;;;;5.73;3.23;;;;;;;7.98;90.15;96756.88;5049638;28;20208;-73
2021/05/31 00:37:46;;;;;;;6.60;3.50;;;;;;;7.86;91.00;96755.47;5049681;28;20729;-73
2021/05/31 00:40:14;;;;;;;7.00;3.40;;;;;;;7.79;90.58;96757.03;5049679;28;20212;-73
2021/05/31 00:42:40;;;;;;;7.23;3.80;;;;;;;7.75;90.32;96747.81;5049510;28;20221;-73
2021/05/31 00:45:08;;;;;;;7.20;3.33;;;;;;;7.74;90.78;96743.53;5049433;28;20283;-73
2021/05/31 00:47:35;;;;;;;5.60;3.53;;;;;;;7.75;90.08;96741.72;5049804;28;20197;-73
2021/05/31 00:50:01;;;;;;;5.83;3.10;;;;;;;7.80;89.85;96735.06;5049487;28;20205;-73
2021/05/31 00:52:27;;;;;;;8.73;3.20;;;;;;;7.71;91.32;96749.06;5049473;28;20286;-73
2021/05/31 00:54:53;;;;;;;6.93;3.50;;;;;;;7.69;91.44;96745.78;5048605;28;20205;-73
2021/05/31 00:57:20;;;;;;;5.87;3.60;;;;;;;7.72;91.04;96745.47;5049380;28;20213;-73
2021/05/31 00:59:46;;;;;;;7.73;3.80;;;;;;;7.72;91.48;96744.66;5049479;28;20205;-73
2021/05/31 01:02:13;;;;;;;7.73;3.50;;;;;;;7.68;92.50;96746.75;5049276;28;20703;-73
2021/05/31 01:04:39;;;;;;;9.83;4.07;;;;;;;7.71;92.00;96749.06;5049470;28;20209;-73
2021/05/31 01:07:13;;;;;;;7.43;3.80;;;;;;;7.81;92.37;96749.03;5049000;28;20205;-73
2021/05/31 01:09:46;;;;;;;8.20;3.30;;;;;;;7.86;90.99;96745.78;5049286;28;20302;-73
2021/05/31 01:12:21;;;;;;;8.80;3.40;;;;;;;7.75;90.40;96741.72;5048850;28;21210;-73
2021/05/31 01:14:57;;;;;;;7.97;4.00;;;;;;;7.55;91.66;96751.50;5049100;28;20216;-73
2021/05/31 01:17:28;;;;;;;6.33;3.33;;;;;;;7.54;91.76;96749.03;5048710;28;20209;-73
2021/05/31 01:20:09;;;;;;;6.30;3.30;;;;;;;7.55;91.79;96741.03;5048922;28;20213;-73
2021/05/31 01:22:38;;;;;;;7.80;3.33;;;;;;;7.60;91.50;96751.91;5049149;28;20221;-73
2021/05/31 01:25:15;;;;;;;6.43;3.40;;;;;;;7.48;93.11;96745.19;5048643;28;20257;-73
2021/05/31 01:28:03;;;;;;;5.67;3.40;;;;;;;7.47;92.97;96743.56;5048905;28;20197;-73
2021/05/31 01:30:31;;;;;;;7.73;3.43;;;;;;;7.30;93.60;96741.69;5048949;28;20213;-73
2021/05/31 01:33:01;;;;;;;6.40;3.63;;;;;;;7.28;94.15;96737.59;5048921;28;20305;-73
2021/05/31 01:35:31;;;;;;;10.13;3.80;;;;;;;7.31;94.52;96737.28;5048434;28;20211;-73
2021/05/31 01:37:59;;;;;;;7.60;3.63;;;;;;;7.33;94.70;96743.19;5048652;28;20847;-73
2021/05/31 01:40:25;;;;;;;8.10;3.63;;;;;;;7.33;95.47;96737.94;5048651;28;20236;-73
2021/05/31 01:42:53;;;;;;;5.73;3.40;;;;;;;7.23;96.52;96734.56;5048707;28;20221;-73
2021/05/31 01:45:20;;;;;;;8.63;3.67;;;;;;;7.13;95.98;96739.03;5048359;28;20227;-73
2021/05/31 01:47:48;;;;;;;6.57;3.40;;;;;;;7.21;96.17;96735.69;5048942;28;20564;-73
2021/05/31 01:50:15;;;;;;;8.57;4.03;;;;;;;7.30;94.22;96736.44;5048621;28;20202;-73
2021/05/31 01:52:43;;;;;;;7.20;3.70;;;;;;;7.26;95.43;96728.22;5048542;28;20232;-73
2021/05/31 01:55:10;;;;;;;6.47;3.60;;;;;;;7.08;96.80;96727.34;5048514;28;20354;-73
2021/05/31 01:57:37;;;;;;;7.43;3.97;;;;;;;6.93;99.57;96731.38;5048629;28;20221;-73
2021/05/31 02:00:05;;;;;;;8.27;3.43;;;;;;;6.99;98.04;96731.63;5048381;28;20201;-73
2021/05/31 02:02:31;;;;;;;6.27;3.77;;;;;;;6.91;98.41;96728.06;5048258;28;20703;-73
2021/05/31 02:04:59;;;;;;;8.73;4.10;;;;;;;6.78;99.12;96727.56;5048368;28;20216;-73
2021/05/31 02:07:25;;;;;;;10.43;4.13;;;;;;;6.78;99.88;96719.69;5048151;28;20208;-73
2021/05/31 02:09:51;;;;;;;6.97;3.50;;;;;;;6.77;99.54;96721.50;5048043;28;20205;-73
2021/05/31 02:12:22;;;;;;;7.17;3.80;;;;;;;6.67;99.94;96715.47;5048516;28;20223;-73
2021/05/31 02:14:54;;;;;;;10.77;4.00;;;;;;;6.77;99.31;96711.03;5047308;28;20274;-73
2021/05/31 02:17:27;;;;;;;7.43;4.10;;;;;;;6.92;98.98;96708.75;5048127;28;20205;-73
2021/05/31 02:20:02;;;;;;;9.33;3.80;;;;;;;6.81;99.71;96709.75;5048286;28;20201;-73
2021/05/31 02:22:32;;;;;;;5.60;3.50;;;;;;;6.79;98.21;96710.88;5048309;28;20286;-73
2021/05/31 02:24:59;;;;;;;7.17;3.57;;;;;;;6.90;97.29;96713.34;5047983;28;20209;-73
2021/05/31 02:27:25;;;;;;;8.70;3.80;;;;;;;6.92;97.75;96709.56;5048221;28;20205;-73
2021/05/31 02:29:51;;;;;;;6.70;3.60;;;;;;;6.98;96.48;96705.56;5048048;28;20216;-73
2021/05/31 02:32:17;;;;;;;9.17;3.50;;;;;;;7.07;94.97;96702.91;5048163;28;20221;-73
2021/05/31 02:34:43;;;;;;;5.57;3.53;;;;;;;6.89;94.79;96704.63;5048233;28;20288;-73
2021/05/31 02:37:12;;;;;;;6.67;3.43;;;;;;;6.93;94.75;96705.19;5047864;28;20244;-73
2021/05/31 02:39:40;;;;;;;5.67;3.37;;;;;;;6.88;95.76;96707.41;5047956;28;21294;-73
2021/05/31 02:42:07;;;;;;;5.83;3.43;;;;;;;6.88;96.11;96702.16;5048187;28;20263;-73
2021/05/31 02:44:33;;;;;;;5.70;3.50;;;;;;;6.92;96.30;96700.91;5048183;28;20212;-73
2021/05/31 02:46:59;;;;;;;7.13;3.83;;;;;;;7.04;96.51;96702.34;5047268;28;20560;-73
2021/05/31 02:49:25;;;;;;;6.83;3.50;;;;;;;7.08;97.28;96706.38;5048003;28;20293;-73
2021/05/31 02:51:51;;;;;;;6.57;4.10;;;;;;;7.10;97.74;96712.28;5047330;28;20212;-73
2021/05/31 02:54:17;;;;;;;12.33;4.53;;;;;;;7.14;96.89;96708.38;5047972;28;20751;-73
2021/05/31 02:56:44;;;;;;;6.67;4.00;;;;;;;7.06;96.88;96710.91;5047506;28;20675;-73
2021/05/31 02:59:10;;;;;;;7.20;4.53;;;;;;;7.07;97.79;96707.34;5047966;28;20797;-73
2021/05/31 03:01:36;;;;;;;8.60;4.07;;;;;;;7.01;96.96;96710.50;5047891;28;20279;-73
2021/05/31 03:04:03;;;;;;;6.97;3.63;;;;;;;7.11;96.73;96709.50;5047870;28;20217;-73
2021/05/31 03:06:29;;;;;;;9.17;3.30;;;;;;;7.10;96.44;96709.66;5047486;28;20201;-73
2021/05/31 03:08:55;;;;;;;8.73;3.53;;;;;;;7.02;95.38;96707.75;5047648;28;20235;-73
2021/05/31 03:11:21;;;;;;;6.53;3.83;;;;;;;7.06;95.15;96706.47;5047958;28;20255;-73
2021/05/31 03:13:48;;;;;;;6.83;3.97;;;;;;;7.01;95.73;96706.09;5047765;28;20221;-73
2021/05/31 03:16:14;;;;;;;8.60;4.10;;;;;;;7.09;96.16;96700.97;5047404;28;20213;-73
2021/05/31 03:18:40;;;;;;;9.07;3.63;;;;;;;7.09;95.81;96705.38;5050290;28;20255;-73
2021/05/31 03:21:06;;;;;;;7.33;2.97;;;;;;;7.06;93.28;96711.72;5051152;28;20197;-73
2021/05/31 03:23:32;;;;;;;10.63;3.00;;;;;;;7.01;93.10;96711.34;5051182;28;20312;-73
2021/05/31 03:25:58;;;;;;;5.70;3.30;;;;;;;6.93;93.64;96707.78;5050969;28;20506;-73
2021/05/31 03:28:24;;;;;;;6.43;3.40;;;;;;;6.92;93.68;96704.34;5051370;28;20208;-73
2021/05/31 03:30:51;;;;;;;7.33;3.50;;;;;;;6.80;94.41;96705.50;5051206;28;20206;-73
2021/05/31 03:33:17;;;;;;;11.33;3.60;;;;;;;6.78;95.73;96702.19;5051184;28;20283;-73
2021/05/31 03:35:43;;;;;;;6.73;3.50;;;;;;;6.72;95.31;96707.16;5050739;28;20208;-73
2021/05/31 03:38:09;;;;;;;8.10;4.13;;;;;;;6.70;94.96;96703.88;5050759;28;20221;-73
2021/05/31 03:40:35;;;;;;;10.90;3.80;;;;;;;6.60;96.42;96705.69;5051099;28;20213;-73
2021/05/31 03:43:01;;;;;;;8.40;3.67;;;;;;;6.49;98.08;96708.47;5050943;28;20260;-73
2021/05/31 03:45:27;;;;;;;11.03;3.90;;;;;;;6.35;100.00;96708.06;5050726;28;20205;-73
2021/05/31 03:47:54;;;;;;;7.87;4.37;;;;;;;6.35;100.00;96706.31;5050755;28;20236;-73
2021/05/31 03:50:21;;;;;;;9.40;4.77;;;;;;;6.44;100.00;96708.06;5050354;28;20279;-73
2021/05/31 03:52:49;;;;;;;7.10;4.20;;;;;;;6.48;100.00;96704.22;5050785;28;20217;-73
2021/05/31 03:55:16;;;;;;;9.63;4.40;;;;;;;6.64;100.00;96712.28;5050529;28;20201;-73
2021/05/31 03:57:42;;;;;;;8.67;4.43;;;;;;;6.68;100.00;96711.03;5050659;28;20262;-73
2021/05/31 04:00:10;;;;;;;8.23;4.47;;;;;;;6.79;100.00;96713.50;5050543;28;20201;-73
2021/05/31 04:02:38;;;;;;;6.10;4.00;;;;;;;6.91;100.00;96714.97;5050461;28;20217;-73
2021/05/31 04:05:08;;;;;;;8.83;4.40;;;;;;;7.09;100.00;96715.84;5050305;28;20209;-73
2021/05/31 04:13:17;;;;;;;6.07;3.80;;;;;;;7.27;98.68;96709.72;5049802;28;20263;-73
2021/05/31 04:15:43;;;;;;;7.23;4.37;;;;;;;7.36;99.21;96701.78;5042859;28;20217;-73
2021/05/31 04:18:09;;;;;;;12.43;4.80;;;;;;;7.46;99.41;96709.63;5039307;28;20780;-73
2021/05/31 04:20:36;;;;;;;7.50;4.40;;;;;;;7.25;100.00;96705.59;5039984;28;20213;-73
2021/05/31 04:23:03;;;;;;;6.67;3.83;;;;;;;7.28;100.00;96706.13;5039701;28;20327;-73
2021/05/31 04:25:29;;;;;;;6.53;4.30;;;;;;;7.29;100.00;96698.13;5039525;28;20201;-73
2021/05/31 04:27:55;;;;;;;8.57;4.07;;;;;;;7.37;100.00;96700.81;5039133;28;20212;-73
2021/05/31 04:30:22;;;;;;;7.97;3.97;;;;;;;7.41;100.00;96699.56;5039566;28;20761;-73
2021/05/31 04:32:48;;;;;;;10.47;4.60;;;;;;;7.63;99.87;96700.94;5040247;28;20936;-73
2021/05/31 04:35:14;;;;;;;6.87;4.40;;;;;;;7.72;100.00;96706.13;5038831;28;20852;-73
2021/05/31 04:37:41;;;;;;;7.23;4.23;;;;;;;7.83;99.57;96707.69;5039054;28;20217;-73
2021/05/31 04:40:08;;;;;;;9.67;4.57;;;;;;;8.02;98.29;96695.28;5039796;28;20224;-73
2021/05/31 04:42:35;;;;;;;8.57;4.37;;;;;;;8.14;97.63;96692.28;5039096;28;20279;-73
2021/05/31 04:45:01;;;;;;;9.03;4.30;;;;;;;8.27;99.07;96691.91;5038910;28;20232;-73
2021/05/31 04:47:27;;;;;;;7.73;3.97;;;;;;;8.34;100.00;96693.78;5039629;28;20205;-73
2021/05/31 04:49:53;;;;;;;8.47;4.93;;;;;;;8.43;100.00;96689.44;5038687;28;20293;-73
2021/05/31 04:52:19;;;;;;;9.17;4.43;;;;;;;8.51;100.00;96691.13;5038549;28;20276;-73
2021/05/31 04:54:48;;;;;;;9.77;3.93;;;;;;;8.58;100.00;96697.41;5040482;28;20240;-73
2021/05/31 04:57:14;;;;;;;8.17;4.93;;;;;;;8.70;99.62;96693.53;5038357;28;20671;-73
2021/05/31 04:59:39;;;;;;;11.50;5.20;;;;;;;8.81;98.36;96692.47;5037858;28;20236;-73
2021/05/31 05:02:05;;;;;;;12.00;5.77;;;;;;;8.88;99.68;96694.31;5039606;28;20229;-73
2021/05/31 05:04:32;;;;;;;8.70;4.70;;;;;;;9.01;99.60;96693.88;5039479;28;20303;-73
2021/05/31 05:06:57;;;;;;;7.17;4.73;;;;;;;9.07;99.92;96695.91;5038327;28;21189;-73
2021/05/31 05:09:23;;;;;;;8.97;5.03;;;;;;;9.06;100.00;96697.69;5039042;28;20205;-75
2021/05/31 05:11:51;;;;;;;8.47;5.03;;;;;;;9.12;100.00;96702.31;5039923;28;20805;-72
2021/05/31 05:14:18;;;;;;;7.73;5.10;;;;;;;9.23;99.09;96696.81;5039074;28;20209;-71
2021/05/31 05:16:44;;;;;;;9.23;5.57;;;;;;;9.29;97.48;96697.00;5037996;28;20201;-71
2021/05/31 05:19:10;;;;;;;10.00;5.73;;;;;;;9.42;100.00;96705.25;5038505;28;20710;-71
2021/05/31 05:21:36;;;;;;;8.57;5.27;;;;;;;9.46;96.19;96700.53;5038719;28;20205;-71
2021/05/31 05:24:02;;;;;;;10.60;5.83;;;;;;;9.61;98.72;96694.50;5038904;28;20259;-72
2021/05/31 05:26:28;;;;;;;9.20;5.20;;;;;;;9.68;97.02;96703.38;5038230;28;20299;-71
2021/05/31 05:28:55;;;;;;;8.27;5.17;;;;;;;9.66;96.97;96701.88;5039068;28;20281;-71
2021/05/31 05:31:21;;;;;;;7.97;5.10;;;;;;;9.79;95.79;96703.09;5039931;28;20258;-74
2021/05/31 05:33:47;;;;;;;11.37;5.20;;;;;;;9.82;97.81;96708.84;5038971;28;20378;-72
2021/05/31 05:36:28;;;;;;;8.30;5.10;;;;;;;9.90;93.68;96708.03;5038225;28;20205;-72
2021/05/31 05:41:50;;;;;;;10.53;5.37;;;;;;;9.94;97.63;96699.66;5035790;28;20620;-72
2021/05/31 05:49:48;;;;;;;8.30;5.30;;;;;;;9.97;95.51;96701.19;5038070;28;20212;-71
2021/05/31 05:52:14;;;;;;;11.77;5.77;;;;;;;10.10;95.44;96702.34;5038335;28;20232;-71
2021/05/31 05:54:40;;;;;;;11.33;5.27;;;;;;;10.14;98.06;96698.38;5037766;28;20239;-71
2021/05/31 05:57:07;;;;;;;11.07;5.77;;;;;;;10.24;95.81;96703.53;5037660;28;20224;-72
2021/05/31 05:59:35;;;;;;;10.43;5.63;;;;;;;10.41;99.93;96700.72;5037558;28;20220;-71
2021/05/31 06:02:01;;;;;;;10.47;5.53;;;;;;;10.59;98.68;96699.56;5038669;28;20228;-71
2021/05/31 06:04:27;;;;;;;10.93;5.70;;;;;;;10.66;92.63;96703.16;5037549;28;20205;-72
2021/05/31 06:06:53;;;;;;;10.83;5.90;;;;;;;10.67;89.41;96706.66;5037477;28;20213;-72
2021/05/31 06:09:20;;;;;;;9.23;5.30;;;;;;;10.61;89.25;96707.31;5037919;28;20619;-72
2021/05/31 06:11:47;;;;;;;10.23;5.60;;;;;;;10.62;90.45;96714.22;5037668;28;20201;-72
2021/05/31 06:14:13;;;;;;;8.60;5.47;;;;;;;10.77;93.06;96715.19;5037508;28;20212;-71
2021/05/31 06:16:40;;;;;;;12.00;5.27;;;;;;;10.85;90.54;96712.56;5037358;28;20213;-71
2021/05/31 06:19:07;;;;;;;10.77;5.47;;;;;;;10.90;88.10;96712.88;5038386;28;20225;-71
2021/05/31 06:21:33;;;;;;;8.30;5.47;;;;;;;10.97;89.59;96712.84;5037824;28;20212;-71
2021/05/31 06:23:59;;;;;;;10.10;5.47;;;;;;;11.09;90.46;96714.13;5039057;28;20233;-72
2021/05/31 06:26:25;;;;;;;9.10;5.60;;;;;;;11.23;89.94;96715.28;5036909;28;20687;-72
2021/05/31 06:28:51;;;;;;;9.83;5.43;;;;;;;11.27;88.24;96717.38;5038387;28;20888;-72
2021/05/31 06:31:17;;;;;;;8.97;5.90;;;;;;;11.40;88.57;96728.22;5037713;28;20217;-72
2021/05/31 06:33:45;;;;;;;9.30;5.80;;;;;;;11.53;87.04;96722.44;5038187;28;20225;-72
2021/05/31 06:36:11;;;;;;;7.87;4.87;;;;;;;11.62;88.73;96723.06;5037122;28;20252;-72
2021/05/31 06:38:37;;;;;;;10.27;5.70;;;;;;;11.74;89.40;96718.25;5038494;28;20229;-72
2021/05/31 06:41:04;;;;;;;8.07;5.50;;;;;;;11.81;86.05;96721.81;5037878;28;20212;-72
2021/05/31 06:43:30;;;;;;;10.07;5.60;;;;;;;11.98;87.11;96724.22;5038467;28;20347;-72
2021/05/31 06:45:58;;;;;;;9.38;5.50;;;;;;;12.02;86.42;96714.94;5037066;28;20212;-72
2021/05/31 06:48:24;;;;;;;10.23;5.60;;;;;;;12.04;86.81;96718.25;5037349;28;20247;-71
2021/05/31 06:50:53;;;;;;;9.30;5.70;;;;;;;12.21;85.26;96720.59;5037267;28;20217;-72
2021/05/31 06:53:19;;;;;;;8.65;5.20;;;;;;;12.21;82.90;96714.50;5039565;28;20257;-72
2021/05/31 06:55:45;;;;;;;7.72;5.43;;;;;;;12.27;81.69;96714.63;5040028;28;20315;-72
2021/05/31 06:58:12;;;;;;;12.05;6.22;;;;;;;12.41;83.76;96708.56;5041502;28;20229;-72
2021/05/31 07:00:38;;;;;;;8.65;5.43;;;;;;;12.48;81.11;96719.25;5041492;28;20209;-72
2021/05/31 07:03:04;;;;;;;9.30;5.72;;;;;;;12.56;85.45;96709.41;5042125;28;20373;-72
2021/05/31 07:05:30;;;;;;;8.18;5.53;;;;;;;12.65;84.38;96718.13;5040402;28;20216;-72
2021/05/31 07:07:59;;;;;;;10.68;5.75;;;;;;;12.82;83.61;96710.69;5041096;28;20211;-72
2021/05/31 07:10:27;;;;;;;9.70;6.05;;;;;;;12.85;80.71;96705.06;5040711;28;20254;-72
2021/05/31 07:12:53;;;;;;;9.25;5.40;;;;;;;12.80;80.86;96717.16;5041361;28;20343;-72
2021/05/31 07:15:20;;;;;;;9.30;5.65;;;;;;;12.95;84.69;96710.13;5040187;28;20355;-72
2021/05/31 07:17:47;;;;;;;9.10;5.15;;;;;;;13.14;79.38;96710.41;5040892;28;20792;-72
2021/05/31 07:20:14;;;;;;;10.05;5.45;;;;;;;13.10;81.15;96709.13;5040631;28;20813;-71
2021/05/31 07:22:44;;;;;;;10.35;5.60;;;;;;;13.07;77.19;96711.31;5040985;28;20240;-71
2021/05/31 07:25:14;;;;;;;9.45;5.53;;;;;;;13.18;78.68;96710.88;5040870;28;20205;-72
2021/05/31 07:27:41;;;;;;;7.40;5.00;;;;;;;13.35;73.88;96710.50;5040559;28;20656;-72
2021/05/31 07:30:08;;;;;;;7.78;4.85;;;;;;;13.46;74.10;96702.91;5040288;28;20197;-72
2021/05/31 07:32:35;;;;;;;9.88;5.50;;;;;;;13.60;79.02;96701.28;5041920;28;20248;-72
2021/05/31 07:35:01;;;;;;;9.55;5.18;;;;;;;13.56;76.92;96698.16;5039642;28;20299;-72
2021/05/31 07:37:27;;;;;;;6.20;4.78;;;;;;;13.64;74.98;96698.06;5039031;28;20247;-72
2021/05/31 07:39:53;;;;;;;8.45;5.05;;;;;;;13.80;78.02;96697.06;5041055;28;20859;-72
2021/05/31 07:42:20;;;;;;;6.35;4.15;;;;;;;13.94;75.83;96698.84;5038353;28;20634;-72
2021/05/31 07:44:46;;;;;;;6.82;4.95;;;;;;;14.07;77.99;96705.94;5037526;28;20207;-72
2021/05/31 07:47:12;;;;;;;8.40;4.53;;;;;;;14.24;73.93;96695.94;5037533;28;20396;-72
2021/05/31 07:49:38;;;;;;;9.63;5.47;;;;;;;14.37;71.43;96696.09;5039029;28;20201;-72
2021/05/31 07:52:18;;;;;;;7.25;4.82;;;;;;;14.30;70.32;96700.50;5038279;28;20274;-72
2021/05/31 07:54:44;;;;;;;9.32;5.25;;;;;;;14.14;73.67;96706.03;5039549;28;20209;-72
2021/05/31 07:57:10;;;;;;;7.53;4.53;;;;;;;14.29;73.88;96704.16;5039039;28;20275;-72
2021/05/31 07:59:37;;;;;;;8.57;4.72;;;;;;;14.61;73.63;96699.16;5040168;28;20264;-72
2021/05/31 08:02:03;;;;;;;8.60;4.90;;;;;;;14.75;75.85;96700.94;5038903;28;20231;-72
2021/05/31 08:04:29;;;;;;;9.32;4.50;;;;;;;14.72;69.89;96698.66;5038472;28;20209;-72
2021/05/31 08:06:59;;;;;;;7.68;4.47;;;;;;;14.84;69.33;96694.47;5038498;28;20209;-72
2021/05/31 08:09:25;;;;;;;7.75;4.32;;;;;;;15.03;69.93;96699.97;5039002;28;20205;-72
2021/05/31 08:11:51;;;;;;;7.50;4.50;;;;;;;14.95;68.93;96699.28;5038876;28;20224;-72
2021/05/31 08:14:17;;;;;;;6.80;4.03;;;;;;;15.15;74.29;96702.88;5040058;28;20204;-72
2021/05/31 08:16:46;;;;;;;8.18;3.88;;;;;;;15.41;70.59;96699.44;5038796;28;20955;-72
2021/05/31 08:19:12;;;;;;;6.13;4.15;;;;;;;15.34;66.98;96703.06;5039749;28;20311;-72
2021/05/31 08:21:38;;;;;;;8.13;3.97;;;;;;;15.48;68.98;96692.31;5040392;28;20240;-72
2021/05/31 08:24:05;;;;;;;10.20;4.60;;;;;;;15.63;71.17;96693.00;5038828;28;20209;-73
2021/05/31 08:26:31;;;;;;;8.80;4.65;;;;;;;15.78;69.09;96692.88;5038619;28;20209;-72
2021/05/31 08:28:57;;;;;;;6.28;4.50;;;;;;;15.72;68.64;96681.22;5038872;28;20201;-72
2021/05/31 08:31:23;;;;;;;6.95;4.60;;;;;;;15.59;69.84;96683.81;5038310;28;20244;-72
2021/05/31 08:33:50;;;;;;;5.97;4.25;;;;;;;15.69;69.19;96681.56;5038541;28;20236;-72
2021/05/31 08:36:18;;;;;;;9.93;4.50;;;;;;;15.84;69.93;96684.13;5039245;28;20209;-72
2021/05/31 08:38:43;;;;;;;7.07;4.30;;;;;;;15.67;65.80;96680.97;5038146;28;20728;-73
2021/05/31 08:41:10;;;;;;;5.40;3.83;;;;;;;15.59;64.68;96691.78;5038518;28;20276;-73
2021/05/31 08:43:36;;;;;;;6.13;3.40;;;;;;;15.83;64.41;96691.25;5038971;28;20945;-73
2021/05/31 08:46:02;;;;;;;4.50;3.40;;;;;;;15.98;63.69;96684.75;5036977;28;20208;-72
2021/05/31 08:48:28;;;;;;;8.68;3.80;;;;;;;16.00;65.48;96685.41;5038605;28;20193;-73
2021/05/31 08:50:56;;;;;;;5.82;3.33;;;;;;;16.04;58.51;96689.28;5039178;28;20263;-72
2021/05/31 08:53:23;;;;;;;5.63;3.78;;;;;;;16.16;61.55;96682.38;5039481;28;20217;-73
2021/05/31 08:55:49;;;;;;;4.82;3.50;;;;;;;16.19;62.56;96684.66;5038149;28;20216;-73
2021/05/31 08:58:15;;;;;;;5.03;3.30;;;;;;;16.37;63.04;96681.44;5038676;28;20611;-72
2021/05/31 09:00:41;;;;;;;5.90;3.45;;;;;;;16.29;65.04;96669.13;5038703;28;20690;-72
2021/05/31 09:03:09;;;;;;;5.72;3.00;;;;;;;16.33;59.81;96677.53;5038539;28;20621;-72
2021/05/31 09:05:38;;;;;;;7.80;3.20;;;;;;;16.66;60.36;96673.91;5038130;28;20491;-72
2021/05/31 09:08:08;;;;;;;6.75;3.60;;;;;;;16.60;59.64;96672.06;5037997;28;20201;-72
2021/05/31 09:10:37;;;;;;;8.40;4.10;;;;;;;16.55;62.20;96672.66;5038603;28;20205;-72
2021/05/31 09:13:03;;;;;;;6.22;3.15;;;;;;;16.71;62.43;96674.13;5038846;28;20225;-72
2021/05/31 09:15:30;;;;;;;5.72;3.45;;;;;;;16.85;61.50;96683.75;5036918;28;20216;-73
2021/05/31 09:17:56;;;;;;;9.20;4.00;;;;;;;16.93;57.48;96667.56;5039538;28;20205;-73
2021/05/31 09:20:24;;;;;;;7.03;3.65;;;;;;;16.84;55.04;96671.44;5037614;28;20515;-73
2021/05/31 09:22:52;;;;;;;6.15;3.85;;;;;;;16.64;57.07;96678.63;5037587;28;20298;-73
2021/05/31 09:25:29;;;;;;;5.05;3.58;;;;;;;16.90;63.15;96675.97;5037840;28;20205;-73
2021/05/31 09:27:57;;;;;;;4.43;3.45;;;;;;;16.53;56.90;96665.91;5037181;28;20235;-72
2021/05/31 09:30:35;;;;;;;5.75;3.90;;;;;;;16.81;59.67;96670.00;5038589;28;20205;-73
2021/05/31 09:33:01;;;;;;;6.65;3.65;;;;;;;16.71;58.99;96668.78;5037830;28;20710;-73
2021/05/31 09:35:27;;;;;;;7.40;3.50;;;;;;;17.13;61.29;96670.03;5037276;28;20224;-72
2021/05/31 09:37:53;;;;;;;4.80;3.58;;;;;;;17.28;61.30;96678.63;5037759;28;20208;-73
2021/05/31 09:40:21;;;;;;;8.90;3.20;;;;;;;17.22;52.56;96667.94;5037312;28;20818;-72
2021/05/31 09:42:50;;;;;;;5.18;3.20;;;;;;;16.82;60.08;96671.66;5037924;28;20228;-72
2021/05/31 09:45:17;;;;;;;4.75;3.13;;;;;;;16.97;57.25;96658.97;5036521;28;20981;-72
2021/05/31 09:47:43;;;;;;;4.18;3.20;;;;;;;17.08;56.89;96665.50;5037471;28;20235;-72
2021/05/31 09:50:10;;;;;;;5.15;3.40;;;;;;;17.25;60.70;96660.38;5037339;28;20220;-73
2021/05/31 09:52:38;;;;;;;4.88;3.00;;;;;;;17.38;54.41;96660.34;5037609;28;20228;-73
2021/05/31 09:55:06;;;;;;;5.13;3.17;;;;;;;17.31;55.52;96662.22;5036081;28;20666;-73
2021/05/31 09:57:35;;;;;;;5.57;3.00;;;;;;;17.37;55.71;96673.91;5037671;28;20205;-73
2021/05/31 10:00:08;;;;;;;5.47;3.13;;;;;;;17.34;54.98;96671.66;5038224;28;20316;-72
2021/05/31 10:02:44;;;;;;;4.68;2.63;;;;;;;17.11;53.20;96666.72;5037582;28;20718;-73
2021/05/31 10:05:22;;;;;;;4.60;2.95;;;;;;;17.14;57.42;96661.00;5036565;28;20636;-72
2021/05/31 10:07:54;;;;;;;6.78;3.15;;;;;;;17.33;53.32;96662.81;5037666;28;20205;-72
2021/05/31 10:10:20;;;;;;;4.85;3.05;;;;;;;17.21;54.56;96659.13;5037979;28;20212;-72
2021/05/31 10:12:48;;;;;;;3.38;2.58;;;;;;;17.53;53.87;96660.13;5037795;28;20228;-72
2021/05/31 10:15:18;;;;;;;6.38;3.22;;;;;;;17.92;57.92;96661.63;5036778;28;20215;-73
2021/05/31 10:17:47;;;;;;;4.72;3.00;;;;;;;17.29;53.13;96658.94;5036842;28;20207;-73
2021/05/31 10:20:13;;;;;;;6.95;3.22;;;;;;;17.65;52.54;96661.94;5038945;28;20229;-73
2021/05/31 10:22:40;;;;;;;4.82;3.03;;;;;;;17.77;53.54;96669.06;5037217;28;20225;-73
2021/05/31 10:25:08;;;;;;;5.60;2.80;;;;;;;17.71;52.51;96653.91;5036132;28;20476;-73
2021/05/31 10:27:35;;;;;;;5.88;3.45;;;;;;;17.81;58.27;96656.94;5038203;28;20663;-73
2021/05/31 10:30:04;;;;;;;6.00;3.22;;;;;;;18.03;55.72;96654.81;5041301;28;20201;-72
2021/05/31 10:32:31;;;;;;;5.63;2.97;;;;;;;18.20;52.61;96648.81;5041785;28;20225;-72
2021/05/31 10:34:57;;;;;;;5.15;2.85;;;;;;;17.92;53.96;96650.13;5041021;28;20290;-72
2021/05/31 10:37:25;;;;;;;5.97;2.95;;;;;;;18.31;54.98;96655.31;5040833;28;20547;-72
2021/05/31 10:40:04;;;;;;;5.28;3.40;;;;;;;18.43;53.16;96649.03;5041064;28;20229;-72
2021/05/31 10:42:41;;;;;;;4.35;2.85;;;;;;;18.50;50.13;96653.31;5040856;28;20235;-72
2021/05/31 10:45:27;;;;;;;3.90;3.03;;;;;;;18.40;52.10;96644.97;5040604;28;20197;-72
2021/05/31 10:48:06;;;;;;;7.15;3.03;;;;;;;18.45;51.51;96647.81;5040797;28;20254;-72
2021/05/31 10:50:34;;;;;;;4.43;2.92;;;;;;;18.78;52.84;96648.38;5040788;28;20205;-73
2021/05/31 10:53:00;;;;;;;5.65;2.97;;;;;;;18.75;52.19;96640.00;5041000;28;20648;-73
2021/05/31 10:55:28;;;;;;;6.85;2.90;;;;;;;18.47;48.54;96645.75;5040018;28;20463;-72
2021/05/31 10:57:56;;;;;;;4.93;3.20;;;;;;;18.47;47.56;96642.28;5040437;28;20204;-73
2021/05/31 11:00:24;;;;;;;5.72;2.88;;;;;;;18.44;52.74;96643.53;5040565;28;20221;-73
2021/05/31 11:02:51;;;;;;;4.30;2.55;;;;;;;18.73;51.80;96634.88;5041349;28;20264;-73
2021/05/31 11:05:19;;;;;;;5.55;3.15;;;;;;;18.87;53.94;96636.41;5039548;28;20963;-73
2021/05/31 11:07:45;;;;;;;5.55;3.45;;;;;;;18.98;48.76;96643.72;5039936;28;20212;-72
2021/05/31 11:10:16;;;;;;;3.97;3.00;;;;;;;18.69;48.30;96639.00;5041685;28;20288;-73
2021/05/31 11:12:42;;;;;;;4.75;3.42;;;;;;;18.89;53.18;96645.03;5040457;28;20711;-72
2021/05/31 11:15:11;;;;;;;4.45;3.10;;;;;;;19.10;47.88;96647.31;5039887;28;20224;-72
2021/05/31 11:17:51;;;;;;;5.47;3.30;;;;;;;18.74;48.48;96639.19;5040708;28;20263;-73
2021/05/31 11:20:21;;;;;;;4.32;3.28;;;;;;;19.01;46.88;96643.28;5039406;28;20243;-73
2021/05/31 11:22:56;;;;;;;5.18;3.30;;;;;;;19.03;47.85;96641.22;5040130;28;20378;-73
2021/05/31 11:25:22;;;;;;;4.60;3.40;;;;;;;19.17;54.18;96642.72;5040227;28;21106;-73
2021/05/31 11:27:53;;;;;;;8.07;3.60;;;;;;;19.14;50.46;96637.84;5040161;28;20212;-72
2021/05/31 11:30:23;;;;;;;6.07;3.55;;;;;;;19.17;49.27;96640.88;5041269;28;20201;-73
2021/05/31 11:32:50;;;;;;;4.82;3.20;;;;;;;19.26;53.05;96636.09;5040510;28;20748;-73
2021/05/31 11:35:17;;;;;;;5.18;3.53;;;;;;;19.13;50.56;96642.38;5040549;28;20663;-73
2021/05/31 11:37:46;;;;;;;5.00;3.05;;;;;;;19.43;50.97;96642.50;5039398;28;20205;-73
2021/05/31 11:40:17;;;;;;;5.15;3.03;;;;;;;19.58;49.91;96635.72;5039278;28;20235;-73
2021/05/31 11:42:45;;;;;;;4.97;3.10;;;;;;;19.95;50.94;96629.34;5039539;28;20225;-73
2021/05/31 11:45:12;;;;;;;7.28;2.83;;;;;;;20.04;45.81;96631.47;5038398;28;20690;-73
2021/05/31 11:47:38;;;;;;;5.53;2.90;;;;;;;19.97;51.83;96624.59;5040195;28;20201;-73
2021/05/31 11:50:05;;;;;;;5.18;2.85;;;;;;;20.03;49.49;96621.00;5040729;28;21811;-73
2021/05/31 11:52:31;;;;;;;3.92;3.00;;;;;;;19.52;48.12;96625.91;5040096;28;20742;-73